createdAt,value
2022-10-19T00:01:24.147Z,10.51
2022-10-19T00:03:56.310Z,10.49
2022-10-19T00:06:34.867Z,10.48
2022-10-19T00:09:15.900Z,10.48
2022-10-19T00:11:47.922Z,10.46
2022-10-19T00:14:23.828Z,10.45
2022-10-19T00:16:53.665Z,10.45
2022-10-19T00:19:28.031Z,10.44
2022-10-19T00:21:56.489Z,10.41
2022-10-19T00:24:24.823Z,10.39
2022-10-19T00:26:53.186Z,10.40
2022-10-19T00:29:22.253Z,10.40
2022-10-19T00:31:51.556Z,10.38
2022-10-19T00:34:19.980Z,10.37
2022-10-19T00:36:48.338Z,10.36
2022-10-19T00:39:18.090Z,10.34
2022-10-19T00:41:47.549Z,10.31
2022-10-19T00:44:16.091Z,10.30
2022-10-19T00:46:50.310Z,10.28
2022-10-19T00:49:25.811Z,10.24
2022-10-19T00:52:01.852Z,10.21
2022-10-19T00:54:33.303Z,10.20
2022-10-19T00:57:01.799Z,10.17
2022-10-19T00:59:32.125Z,10.16
2022-10-19T01:02:04.226Z,10.13
2022-10-19T01:04:36.235Z,10.11
2022-10-19T01:07:07.021Z,10.09
2022-10-19T01:09:35.456Z,10.03
2022-10-19T01:12:31.505Z,10.03
2022-10-19T01:15:28.633Z,9.99
2022-10-19T01:18:00.186Z,9.96
2022-10-19T01:20:34.197Z,9.95
2022-10-19T01:23:39.508Z,9.94
2022-10-19T01:26:44.746Z,9.88
2022-10-19T01:30:00.181Z,9.90
2022-10-19T01:32:55.549Z,9.88
2022-10-19T01:35:37.962Z,9.88
2022-10-19T01:38:14.328Z,9.86
2022-10-19T01:40:56.644Z,9.86
2022-10-19T01:43:55.650Z,9.84
2022-10-19T01:46:33.754Z,9.81
2022-10-19T01:49:13.703Z,9.79
2022-10-19T01:51:56.451Z,9.78
2022-10-19T01:54:30.691Z,9.77
2022-10-19T01:57:03.118Z,9.76
2022-10-19T01:59:33.589Z,9.73
2022-10-19T02:02:05.306Z,9.66
2022-10-19T02:04:35.614Z,9.68
2022-10-19T02:07:06.215Z,9.66
2022-10-19T02:09:34.522Z,9.63
2022-10-19T02:12:09.660Z,9.60
2022-10-19T02:14:46.449Z,9.55
2022-10-19T02:17:25.149Z,9.54
2022-10-19T02:19:54.933Z,9.49
2022-10-19T02:22:23.258Z,9.49
2022-10-19T02:24:51.616Z,9.45
2022-10-19T02:27:20.117Z,9.56
2022-10-19T02:29:48.421Z,9.58
2022-10-19T02:32:17.166Z,9.62
2022-10-19T02:34:45.649Z,9.66
2022-10-19T02:37:14.167Z,9.68
2022-10-19T02:39:42.561Z,9.68
2022-10-19T02:42:55.574Z,9.67
2022-10-19T02:45:32.120Z,9.65
2022-10-19T02:48:07.450Z,9.63
2022-10-19T02:50:36.323Z,9.63
2022-10-19T02:53:04.663Z,9.63
2022-10-19T02:55:33.052Z,9.66
2022-10-19T02:58:01.374Z,9.67
2022-10-19T03:00:29.900Z,9.68
2022-10-19T03:02:58.345Z,9.69
2022-10-19T03:05:26.770Z,9.63
2022-10-19T03:07:55.125Z,9.56
2022-10-19T03:10:24.438Z,9.50
2022-10-19T03:12:52.762Z,9.48
2022-10-19T03:15:21.160Z,9.37
2022-10-19T03:17:54.040Z,9.24
2022-10-19T03:20:22.336Z,9.05
2022-10-19T03:22:50.724Z,8.94
2022-10-19T03:25:19.157Z,8.88
2022-10-19T03:27:47.413Z,8.75
2022-10-19T03:30:15.938Z,8.72
2022-10-19T03:32:44.310Z,8.71
2022-10-19T03:35:12.570Z,8.65
2022-10-19T03:37:41.044Z,8.60
2022-10-19T03:40:10.347Z,8.65
2022-10-19T03:42:38.730Z,8.71
2022-10-19T03:45:08.013Z,8.77
2022-10-19T03:47:36.555Z,8.84
2022-10-19T03:50:06.298Z,8.89
2022-10-19T03:52:34.533Z,8.95
2022-10-19T03:55:02.829Z,8.99
2022-10-19T03:57:31.218Z,9.05
2022-10-19T03:59:59.625Z,9.04
2022-10-19T04:02:28.006Z,8.99
2022-10-19T04:04:56.301Z,9.02
2022-10-19T04:07:24.573Z,9.01
2022-10-19T04:09:52.943Z,8.90
2022-10-19T04:12:21.307Z,8.84
2022-10-19T04:14:57.841Z,8.78
2022-10-19T04:17:26.606Z,8.71
2022-10-19T04:19:54.890Z,8.70
2022-10-19T04:22:23.181Z,8.63
2022-10-19T04:24:51.451Z,8.54
2022-10-19T04:27:19.755Z,8.48
2022-10-19T04:29:48.002Z,8.38
2022-10-19T04:32:16.309Z,8.39
2022-10-19T04:34:44.555Z,8.39
2022-10-19T04:37:12.792Z,8.39
2022-10-19T04:39:43.397Z,8.35
2022-10-19T04:42:11.877Z,8.24
2022-10-19T04:44:40.324Z,8.13
2022-10-19T04:47:08.619Z,8.18
2022-10-19T04:49:36.914Z,8.31
2022-10-19T04:52:05.203Z,8.44
2022-10-19T04:54:33.560Z,8.57
2022-10-19T04:57:01.945Z,8.69
2022-10-19T04:59:30.289Z,8.79
2022-10-19T05:01:58.673Z,8.81
2022-10-19T05:04:27.008Z,8.95
2022-10-19T05:06:55.268Z,9.03
2022-10-19T05:09:23.696Z,9.04
2022-10-19T05:11:52.133Z,9.13
2022-10-19T05:14:20.533Z,9.18
2022-10-19T05:16:48.897Z,9.24
2022-10-19T05:19:17.343Z,9.30
2022-10-19T05:21:45.618Z,9.36
2022-10-19T05:24:13.993Z,9.40
2022-10-19T05:26:42.538Z,9.48
2022-10-19T05:29:13.459Z,9.57
2022-10-19T05:31:41.782Z,9.68
2022-10-19T05:34:10.128Z,9.72
2022-10-19T05:36:39.770Z,9.80
2022-10-19T05:39:15.850Z,9.85
2022-10-19T05:41:47.439Z,10.00
2022-10-19T05:44:22.048Z,10.10
2022-10-19T05:46:55.252Z,10.17
2022-10-19T05:49:24.968Z,10.23
2022-10-19T05:51:56.580Z,10.29
2022-10-19T05:54:28.501Z,10.32
2022-10-19T05:56:59.897Z,10.30
2022-10-19T05:59:29.533Z,10.30
2022-10-19T06:01:57.995Z,10.31
2022-10-19T06:04:26.497Z,10.22
2022-10-19T06:06:56.974Z,10.31
2022-10-19T06:09:25.354Z,10.31
2022-10-19T06:11:53.707Z,10.14
2022-10-19T06:14:21.993Z,10.03
2022-10-19T06:16:50.310Z,9.89
2022-10-19T06:19:19.421Z,9.83
2022-10-19T06:21:47.705Z,9.86
2022-10-19T06:24:16.017Z,10.04
2022-10-19T06:26:44.381Z,10.21
2022-10-19T06:29:12.934Z,10.36
2022-10-19T06:31:41.297Z,10.50
2022-10-19T06:34:09.732Z,10.57
2022-10-19T06:36:38.308Z,10.62
2022-10-19T06:39:06.623Z,10.62
2022-10-19T06:41:35.194Z,10.76
2022-10-19T06:44:16.975Z,10.78
2022-10-19T06:46:45.303Z,10.81
2022-10-19T06:49:14.879Z,10.84
2022-10-19T06:51:43.185Z,10.85
2022-10-19T06:54:11.776Z,10.92
2022-10-19T06:59:24.385Z,10.94
2022-10-19T07:01:57.612Z,10.97
2022-10-19T07:04:27.017Z,11.03
2022-10-19T07:06:58.412Z,11.05
2022-10-19T07:09:38.477Z,11.17
2022-10-19T07:12:11.750Z,11.31
2022-10-19T07:14:51.247Z,11.42
2022-10-19T07:17:22.778Z,11.54
2022-10-19T07:19:55.064Z,11.65
2022-10-19T07:22:37.555Z,11.76
2022-10-19T07:25:13.277Z,11.88
2022-10-19T07:27:44.942Z,11.99
2022-10-19T07:30:43.213Z,12.10
2022-10-19T07:33:32.703Z,12.29
2022-10-19T07:36:18.094Z,12.51
2022-10-19T07:38:47.876Z,12.81
2022-10-19T07:41:50.034Z,13.01
2022-10-19T07:44:40.996Z,13.21
2022-10-19T07:47:24.188Z,13.48
2022-10-19T07:50:05.407Z,13.65
2022-10-19T07:53:14.893Z,13.75
2022-10-19T07:55:53.202Z,13.82
2022-10-19T07:58:34.901Z,13.83
2022-10-19T08:01:10.659Z,13.93
2022-10-19T08:04:31.656Z,13.93
2022-10-19T08:06:29.547Z,13.87
2022-10-19T08:09:02.149Z,13.87
2022-10-19T08:11:36.546Z,13.85
2022-10-19T08:14:16.755Z,13.73
2022-10-19T08:16:47.289Z,13.79
2022-10-19T08:19:17.671Z,13.75
2022-10-19T08:21:47.560Z,13.83
2022-10-19T08:24:19.522Z,13.87
2022-10-19T08:26:54.259Z,13.95
2022-10-19T08:29:25.593Z,14.04
2022-10-19T08:31:56.737Z,14.05
2022-10-19T08:34:26.455Z,13.98
2022-10-19T08:36:55.906Z,14.05
2022-10-19T08:39:24.966Z,14.11
2022-10-19T08:42:22.596Z,14.11
2022-10-19T08:45:07.789Z,14.15
2022-10-19T08:47:56.218Z,14.11
2022-10-19T08:50:29.373Z,14.15
2022-10-19T08:53:13.021Z,14.18
2022-10-19T08:59:33.023Z,14.14
2022-10-19T09:02:13.858Z,14.15
2022-10-19T09:04:52.885Z,14.15
2022-10-19T09:07:26.204Z,14.13
2022-10-19T09:10:09.456Z,14.24
2022-10-19T09:12:50.624Z,14.29
2022-10-19T09:15:46.089Z,14.37
2022-10-19T09:18:30.530Z,14.44
2022-10-19T09:21:13.494Z,14.44
2022-10-19T09:24:16.313Z,14.49
2022-10-19T09:26:54.995Z,14.50
2022-10-19T09:30:12.057Z,14.52
2022-10-19T09:32:41.117Z,14.56
2022-10-19T09:35:36.306Z,14.64
2022-10-19T09:38:08.010Z,14.73
2022-10-19T09:40:36.455Z,14.82
2022-10-19T09:43:20.988Z,14.93
2022-10-19T09:46:01.250Z,14.97
2022-10-19T09:48:47.767Z,14.91
2022-10-19T09:51:18.381Z,14.99
2022-10-19T09:53:55.481Z,14.97
2022-10-19T09:56:28.469Z,14.86
2022-10-19T09:58:59.352Z,14.85
2022-10-19T10:01:41.565Z,14.88
2022-10-19T10:04:17.023Z,14.86
2022-10-19T10:06:48.449Z,14.84
2022-10-19T10:09:19.846Z,14.69
2022-10-19T10:11:51.508Z,14.76
2022-10-19T10:14:35.770Z,14.83
2022-10-19T10:17:19.464Z,14.76
2022-10-19T10:19:59.808Z,14.79
2022-10-19T10:22:36.029Z,14.75
2022-10-19T10:25:18.358Z,14.68
2022-10-19T10:28:18.208Z,14.65
2022-10-19T10:30:49.201Z,14.58
2022-10-19T10:33:43.844Z,14.53
2022-10-19T10:36:13.819Z,14.47
2022-10-19T10:38:53.728Z,14.37
2022-10-19T10:41:23.955Z,14.33
2022-10-19T10:44:07.016Z,14.34
2022-10-19T10:47:05.870Z,14.30
2022-10-19T10:49:37.609Z,14.30
2022-10-19T10:52:12.362Z,14.37
2022-10-19T10:54:41.138Z,14.31
2022-10-19T10:57:17.093Z,14.37
2022-10-19T10:59:57.923Z,14.42
2022-10-19T11:03:02.717Z,14.51
2022-10-19T11:05:41.666Z,14.51
2022-10-19T11:08:13.245Z,14.57
2022-10-19T11:10:59.597Z,14.63
2022-10-19T11:13:59.254Z,14.51
2022-10-19T11:16:35.702Z,14.53
2022-10-19T11:19:22.514Z,14.65
2022-10-19T11:22:00.676Z,14.71
2022-10-19T11:24:38.105Z,14.69
2022-10-19T11:27:09.253Z,14.58
2022-10-19T11:30:22.229Z,14.57
2022-10-19T11:32:50.467Z,14.40
2022-10-19T11:35:39.891Z,14.27
2022-10-19T11:38:38.982Z,14.17
2022-10-19T11:41:37.178Z,14.14
2022-10-19T11:44:24.091Z,13.98
2022-10-19T11:46:57.284Z,13.87
2022-10-19T11:50:23.709Z,13.78
2022-10-19T11:53:16.085Z,13.77
2022-10-19T11:56:04.455Z,13.86
2022-10-19T12:02:22.840Z,14.04
2022-10-19T12:05:21.550Z,14.18
2022-10-19T12:08:41.292Z,14.26
2022-10-19T12:11:21.650Z,14.38
2022-10-19T12:13:57.453Z,14.39
2022-10-19T12:16:37.769Z,14.51
2022-10-19T12:19:13.098Z,14.59
2022-10-19T12:21:43.732Z,14.65
2022-10-19T12:24:24.973Z,14.57
2022-10-19T12:26:55.212Z,14.51
2022-10-19T12:29:29.750Z,14.53
2022-10-19T12:32:01.290Z,14.53
2022-10-19T12:35:05.013Z,14.53
2022-10-19T12:37:53.881Z,14.49
2022-10-19T12:40:31.596Z,14.45
2022-10-19T12:43:24.015Z,14.51
2022-10-19T12:46:10.430Z,14.52
2022-10-19T12:48:39.502Z,14.51
2022-10-19T12:51:16.560Z,14.47
2022-10-19T12:53:49.362Z,14.53
2022-10-19T12:56:25.515Z,14.63
2022-10-19T12:59:01.603Z,14.67
2022-10-19T13:01:44.578Z,14.59
2022-10-19T13:04:36.254Z,14.58
2022-10-19T13:07:09.341Z,14.56
2022-10-19T13:09:39.646Z,14.63
2022-10-19T13:12:16.436Z,14.64
2022-10-19T13:14:58.736Z,14.54
2022-10-19T13:17:46.669Z,14.49
2022-10-19T13:20:14.957Z,14.56
2022-10-19T13:23:03.628Z,14.68
2022-10-19T13:25:32.405Z,14.71
2022-10-19T13:28:07.564Z,14.77
2022-10-19T13:30:35.770Z,14.80
2022-10-19T13:33:24.706Z,14.82
2022-10-19T13:35:59.103Z,14.78
2022-10-19T13:38:42.628Z,14.75
2022-10-19T13:41:25.344Z,14.73
2022-10-19T13:44:22.985Z,14.74
2022-10-19T13:47:19.701Z,14.76
2022-10-19T13:50:16.711Z,14.77
2022-10-19T13:53:14.430Z,14.79
2022-10-19T13:55:56.731Z,14.76
2022-10-19T13:59:00.089Z,14.65
2022-10-19T14:02:00.773Z,14.59
2022-10-19T14:05:06.244Z,14.49
2022-10-19T14:07:50.129Z,14.39
2022-10-19T14:10:25.147Z,14.31
2022-10-19T14:13:03.267Z,14.24
2022-10-19T14:15:35.162Z,14.19
2022-10-19T14:18:05.825Z,14.16
2022-10-19T14:20:39.025Z,14.11
2022-10-19T14:23:29.072Z,14.07
2022-10-19T14:26:11.158Z,14.02
2022-10-19T14:28:41.227Z,13.98
2022-10-19T14:31:20.083Z,13.96
2022-10-19T14:33:52.878Z,13.94
2022-10-19T14:36:25.409Z,13.92
2022-10-19T14:38:56.277Z,13.90
2022-10-19T14:41:27.324Z,13.86
2022-10-19T14:44:00.532Z,13.79
2022-10-19T14:46:32.271Z,13.77
2022-10-19T14:49:04.947Z,13.74
2022-10-19T14:51:45.571Z,13.77
2022-10-19T14:54:37.608Z,13.77
2022-10-19T14:57:11.176Z,13.76
2022-10-19T14:59:55.144Z,13.76
2022-10-19T15:02:50.990Z,13.74
2022-10-19T15:05:23.962Z,13.70
2022-10-19T15:07:52.979Z,13.65
2022-10-19T15:10:26.125Z,13.59
2022-10-19T15:13:04.725Z,13.56
2022-10-19T15:15:35.726Z,13.53
2022-10-19T15:18:06.899Z,13.48
2022-10-19T15:20:49.564Z,13.40
2022-10-19T15:23:43.360Z,13.42
2022-10-19T15:26:26.702Z,13.43
2022-10-19T15:29:08.168Z,13.43
2022-10-19T15:31:36.588Z,13.47
2022-10-19T15:34:05.576Z,13.47
2022-10-19T15:36:33.932Z,13.48
2022-10-19T15:39:24.934Z,13.47
2022-10-19T15:41:55.812Z,13.44
2022-10-19T15:44:43.629Z,13.41
2022-10-19T15:47:19.332Z,13.42
2022-10-19T15:50:01.312Z,13.39
2022-10-19T15:52:34.277Z,13.35
2022-10-19T15:55:02.795Z,13.34
2022-10-19T15:57:32.641Z,13.36
2022-10-19T16:00:12.976Z,13.36
2022-10-19T16:02:41.701Z,13.34
2022-10-19T16:05:11.059Z,13.35
2022-10-19T16:07:41.192Z,13.37
2022-10-19T16:10:21.025Z,13.39
2022-10-19T16:12:49.425Z,13.35
2022-10-19T16:15:23.485Z,13.40
2022-10-19T16:17:59.244Z,13.40
2022-10-19T16:20:30.112Z,13.42
2022-10-19T16:22:58.878Z,13.43
2022-10-19T16:25:27.202Z,13.39
2022-10-19T16:27:55.476Z,13.40
2022-10-19T16:30:23.789Z,13.36
2022-10-19T16:32:52.078Z,13.39
2022-10-19T16:35:20.442Z,13.37
2022-10-19T16:37:48.699Z,13.35
2022-10-19T16:40:17.679Z,13.33
2022-10-19T16:42:45.906Z,13.31
2022-10-19T16:45:14.249Z,13.27
2022-10-19T16:47:42.621Z,13.24
2022-10-19T16:50:11.603Z,13.19
2022-10-19T16:52:40.200Z,13.17
2022-10-19T16:55:09.122Z,13.16
2022-10-19T16:57:37.860Z,13.11
2022-10-19T17:00:09.584Z,13.04
2022-10-19T17:02:39.850Z,13.05
2022-10-19T17:05:11.292Z,13.02
2022-10-19T17:07:39.574Z,13.02
2022-10-19T17:10:08.303Z,13.04
2022-10-19T17:12:41.059Z,13.05
2022-10-19T17:15:40.941Z,13.02
2022-10-19T17:17:59.528Z,13.05
2022-10-19T17:20:27.797Z,13.01
2022-10-19T17:22:56.037Z,12.99
2022-10-19T17:25:24.489Z,12.96
2022-10-19T17:27:52.765Z,12.94
2022-10-19T17:30:21.005Z,12.93
2022-10-19T17:32:50.286Z,12.88
2022-10-19T17:35:18.576Z,12.88
2022-10-19T17:37:46.886Z,12.86
2022-10-19T17:40:15.292Z,12.82
2022-10-19T17:42:43.499Z,12.80
2022-10-19T17:45:11.883Z,12.78
2022-10-19T17:47:40.365Z,12.76
2022-10-19T17:50:09.345Z,12.77
2022-10-19T17:52:37.607Z,12.67
2022-10-19T17:55:12.098Z,12.74
2022-10-19T17:57:40.944Z,12.70
2022-10-19T18:00:09.777Z,12.66
2022-10-19T18:02:40.863Z,12.61
2022-10-19T18:05:09.905Z,12.59
2022-10-19T18:07:38.370Z,12.57
2022-10-19T18:10:06.964Z,12.55
2022-10-19T18:12:35.312Z,12.49
2022-10-19T18:15:04.560Z,12.49
2022-10-19T18:17:32.960Z,12.50
2022-10-19T18:20:01.359Z,12.49
2022-10-19T18:22:29.672Z,12.49
2022-10-19T18:24:57.949Z,12.50
2022-10-19T18:27:26.232Z,12.50
2022-10-19T18:29:54.699Z,12.49
2022-10-19T18:32:22.956Z,12.50
2022-10-19T18:34:51.233Z,12.47
2022-10-19T18:37:19.732Z,12.44
2022-10-19T18:39:48.754Z,12.37
2022-10-19T18:42:17.990Z,12.27
2022-10-19T18:44:47.618Z,12.18
2022-10-19T18:47:15.873Z,12.12
2022-10-19T18:49:44.187Z,12.02
2022-10-19T18:52:12.480Z,12.00
2022-10-19T18:54:40.728Z,11.94
2022-10-19T18:57:09.296Z,11.92
2022-10-19T18:59:37.598Z,11.90
2022-10-19T19:02:13.622Z,11.89
2022-10-19T19:04:50.925Z,11.89
2022-10-19T19:07:19.969Z,11.88
2022-10-19T19:09:50.241Z,11.87
2022-10-19T19:12:18.483Z,11.85
2022-10-19T19:14:47.114Z,11.84
2022-10-19T19:17:15.487Z,11.85
2022-10-19T19:19:43.875Z,11.84
2022-10-19T19:22:12.251Z,11.85
2022-10-19T19:24:42.206Z,11.84
2022-10-19T19:27:10.730Z,11.83
2022-10-19T19:29:39.037Z,11.82
2022-10-19T19:32:07.379Z,11.81
2022-10-19T19:34:36.198Z,11.80
2022-10-19T19:37:08.774Z,11.75
2022-10-19T19:39:40.197Z,11.78
2022-10-19T19:42:08.708Z,11.78
2022-10-19T19:44:36.940Z,11.76
2022-10-19T19:47:06.156Z,11.74
2022-10-19T19:49:34.372Z,11.73
2022-10-19T19:52:02.609Z,11.74
2022-10-19T19:54:31.349Z,11.73
2022-10-19T19:56:59.595Z,11.71
2022-10-19T19:59:27.919Z,11.70
2022-10-19T20:01:56.281Z,11.70
2022-10-19T20:04:24.609Z,11.69
2022-10-19T20:06:52.998Z,11.67
2022-10-19T20:09:21.372Z,11.66
2022-10-19T20:11:49.597Z,11.59
2022-10-19T20:14:19.039Z,11.60
2022-10-19T20:16:47.326Z,11.58
2022-10-19T20:19:15.610Z,11.54
2022-10-19T20:21:44.249Z,11.52
2022-10-19T20:24:12.665Z,11.47
2022-10-19T20:26:40.925Z,11.45
2022-10-19T20:29:09.319Z,11.39
2022-10-19T20:31:41.443Z,11.33
2022-10-19T20:34:13.874Z,11.25
2022-10-19T20:36:43.021Z,11.18
2022-10-19T20:39:11.359Z,11.13
2022-10-19T20:41:39.914Z,11.07
2022-10-19T20:44:08.314Z,11.02
2022-10-19T20:46:37.245Z,10.97
2022-10-19T20:49:05.714Z,10.92
2022-10-19T20:51:39.060Z,10.83
2022-10-19T20:54:12.410Z,10.82
2022-10-19T20:56:42.397Z,10.78
2022-10-19T20:59:20.398Z,10.74
2022-10-19T21:01:53.865Z,10.68
2022-10-19T21:04:22.697Z,10.65
2022-10-19T21:06:52.086Z,10.60
2022-10-19T21:09:23.698Z,10.56
2022-10-19T21:11:52.886Z,10.52
2022-10-19T21:14:27.217Z,10.50
2022-10-19T21:16:58.796Z,10.44
2022-10-19T21:19:29.396Z,10.41
2022-10-19T21:22:04.464Z,10.38
2022-10-19T21:24:36.253Z,10.35
2022-10-19T21:27:07.858Z,10.31
2022-10-19T21:29:37.553Z,10.27
2022-10-19T21:32:06.726Z,10.23
2022-10-19T21:34:35.041Z,10.26
2022-10-19T21:37:04.113Z,10.26
2022-10-19T21:39:32.399Z,10.26
2022-10-19T21:42:00.633Z,10.24
2022-10-19T21:44:28.979Z,10.22
2022-10-19T21:46:57.245Z,10.21
2022-10-19T21:49:25.632Z,10.22
2022-10-19T22:04:05.713Z,10.55
2022-10-19T22:06:36.482Z,10.51
2022-10-19T22:09:07.608Z,10.49
2022-10-19T22:11:36.123Z,10.44
2022-10-19T22:14:05.646Z,10.43
2022-10-19T22:16:36.168Z,10.40
2022-10-19T22:19:05.926Z,10.35
2022-10-19T22:21:35.567Z,10.31
2022-10-19T22:24:12.824Z,10.25
2022-10-19T22:26:46.323Z,10.23
2022-10-19T22:29:14.900Z,10.20
2022-10-19T22:31:43.489Z,10.22
2022-10-19T22:34:16.576Z,10.24
2022-10-19T22:36:45.493Z,10.25
2022-10-19T22:39:15.005Z,10.25
2022-10-19T22:41:43.477Z,10.25
2022-10-19T22:44:12.029Z,10.23
2022-10-19T22:46:40.531Z,10.22
2022-10-19T22:51:42.923Z,10.15
2022-10-19T22:54:11.508Z,10.12
2022-10-19T22:56:40.749Z,10.12
2022-10-19T22:59:09.474Z,10.11
2022-10-19T23:01:38.368Z,10.10
2022-10-19T23:04:07.118Z,10.09
2022-10-19T23:06:35.648Z,10.11
2022-10-19T23:09:04.397Z,10.10
2022-10-19T23:11:33.104Z,10.04
2022-10-19T23:14:01.894Z,10.02
2022-10-19T23:16:30.603Z,9.97
2022-10-19T23:18:59.066Z,9.94
2022-10-19T23:21:27.661Z,9.88
2022-10-19T23:23:56.127Z,9.86
2022-10-19T23:26:25.285Z,9.84
2022-10-19T23:28:53.637Z,9.80
2022-10-19T23:31:26.573Z,9.79
2022-10-19T23:33:55.113Z,9.77
2022-10-19T23:36:28.992Z,9.77
2022-10-19T23:38:58.879Z,9.74
2022-10-19T23:41:27.589Z,9.73
2022-10-19T23:43:56.156Z,9.75
2022-10-19T23:46:24.633Z,9.76
2022-10-19T23:48:53.008Z,9.75
2022-10-19T23:51:22.215Z,9.71
2022-10-19T23:53:52.979Z,9.69
2022-10-19T23:56:24.923Z,9.63
2022-10-19T23:58:54.583Z,9.59
